sensor_id;sensor_type;location;lat;lon;timestamp;temperature;humidity
15095;DHT22;7648;52.264;9.632;2023-04-15T00:01:51;6.30;99.90
15095;DHT22;7648;52.264;9.632;2023-04-15T00:05:53;6.30;99.90
15095;DHT22;7648;52.264;9.632;2023-04-15T00:09:55;6.30;99.90
15095;DHT22;7648;52.264;9.632;2023-04-15T00:13:57;6.30;99.90
15095;DHT22;7648;52.264;9.632;2023-04-15T00:18:01;6.30;99.90
15095;DHT22;7648;52.264;9.632;2023-04-15T00:22:03;6.30;99.90
15095;DHT22;7648;52.264;9.632;2023-04-15T00:26:06;6.30;99.90
15095;DHT22;7648;52.264;9.632;2023-04-15T00:30:09;6.30;99.90
15095;DHT22;7648;52.264;9.632;2023-04-15T00:34:13;6.30;99.90
15095;DHT22;7648;52.264;9.632;2023-04-15T00:38:17;6.30;99.90
15095;DHT22;7648;52.264;9.632;2023-04-15T00:42:19;6.30;99.90
15095;DHT22;7648;52.264;9.632;2023-04-15T00:46:22;6.30;99.90
15095;DHT22;7648;52.264;9.632;2023-04-15T00:50:25;6.30;99.90
15095;DHT22;7648;52.264;9.632;2023-04-15T00:54:27;6.30;99.90
15095;DHT22;7648;52.264;9.632;2023-04-15T00:58:29;6.30;99.90
15095;DHT22;7648;52.264;9.632;2023-04-15T01:02:31;6.30;99.90
15095;DHT22;7648;52.264;9.632;2023-04-15T01:06:34;6.30;99.90
15095;DHT22;7648;52.264;9.632;2023-04-15T01:10:36;6.30;99.90
15095;DHT22;7648;52.264;9.632;2023-04-15T01:14:39;6.20;99.90
15095;DHT22;7648;52.264;9.632;2023-04-15T01:18:40;6.20;99.90
15095;DHT22;7648;52.264;9.632;2023-04-15T01:22:44;6.30;99.90
15095;DHT22;7648;52.264;9.632;2023-04-15T01:26:47;6.40;99.90
15095;DHT22;7648;52.264;9.632;2023-04-15T01:30:49;6.40;99.90
15095;DHT22;7648;52.264;9.632;2023-04-15T01:34:51;6.40;99.90
15095;DHT22;7648;52.264;9.632;2023-04-15T01:38:57;6.40;99.90
15095;DHT22;7648;52.264;9.632;2023-04-15T01:43:01;6.40;99.90
15095;DHT22;7648;52.264;9.632;2023-04-15T01:47:03;6.40;99.90
15095;DHT22;7648;52.264;9.632;2023-04-15T01:51:05;6.40;99.90
15095;DHT22;7648;52.264;9.632;2023-04-15T01:55:08;6.40;99.90
15095;DHT22;7648;52.264;9.632;2023-04-15T01:59:11;6.40;99.90
15095;DHT22;7648;52.264;9.632;2023-04-15T02:03:13;6.40;99.90
15095;DHT22;7648;52.264;9.632;2023-04-15T02:07:15;6.40;99.90
15095;DHT22;7648;52.264;9.632;2023-04-15T02:11:17;6.40;99.90
15095;DHT22;7648;52.264;9.632;2023-04-15T02:15:21;6.40;99.90
15095;DHT22;7648;52.264;9.632;2023-04-15T02:19:24;6.40;99.90
15095;DHT22;7648;52.264;9.632;2023-04-15T02:23:26;6.40;99.90
15095;DHT22;7648;52.264;9.632;2023-04-15T02:27:28;6.40;99.90
15095;DHT22;7648;52.264;9.632;2023-04-15T02:31:31;6.40;99.90
15095;DHT22;7648;52.264;9.632;2023-04-15T02:35:36;6.40;99.90
15095;DHT22;7648;52.264;9.632;2023-04-15T02:39:42;6.50;99.90
15095;DHT22;7648;52.264;9.632;2023-04-15T02:43:43;6.50;99.90
15095;DHT22;7648;52.264;9.632;2023-04-15T02:47:48;6.50;99.90
15095;DHT22;7648;52.264;9.632;2023-04-15T02:51:50;6.50;99.90
15095;DHT22;7648;52.264;9.632;2023-04-15T02:55:54;6.60;99.90
15095;DHT22;7648;52.264;9.632;2023-04-15T02:59:55;6.60;99.90
15095;DHT22;7648;52.264;9.632;2023-04-15T03:03:59;6.60;99.90
15095;DHT22;7648;52.264;9.632;2023-04-15T03:08:01;6.60;99.90
15095;DHT22;7648;52.264;9.632;2023-04-15T03:12:03;6.60;99.90
15095;DHT22;7648;52.264;9.632;2023-04-15T03:16:06;6.70;99.90
15095;DHT22;7648;52.264;9.632;2023-04-15T03:20:09;6.70;99.90
15095;DHT22;7648;52.264;9.632;2023-04-15T03:24:11;6.70;99.90
15095;DHT22;7648;52.264;9.632;2023-04-15T03:28:13;6.70;99.90
15095;DHT22;7648;52.264;9.632;2023-04-15T03:32:15;6.70;99.90
15095;DHT22;7648;52.264;9.632;2023-04-15T03:36:19;6.70;99.90
15095;DHT22;7648;52.264;9.632;2023-04-15T03:40:21;6.70;99.90
15095;DHT22;7648;52.264;9.632;2023-04-15T03:44:23;6.70;99.90
15095;DHT22;7648;52.264;9.632;2023-04-15T03:48:25;6.70;99.90
15095;DHT22;7648;52.264;9.632;2023-04-15T03:52:28;6.70;99.90
15095;DHT22;7648;52.264;9.632;2023-04-15T03:56:30;6.70;99.90
15095;DHT22;7648;52.264;9.632;2023-04-15T04:00:31;6.70;99.90
15095;DHT22;7648;52.264;9.632;2023-04-15T04:04:33;6.70;99.90
15095;DHT22;7648;52.264;9.632;2023-04-15T04:08:36;6.70;99.90
15095;DHT22;7648;52.264;9.632;2023-04-15T04:12:38;6.70;99.90
15095;DHT22;7648;52.264;9.632;2023-04-15T04:16:40;6.70;99.90
15095;DHT22;7648;52.264;9.632;2023-04-15T04:20:42;6.70;99.90
15095;DHT22;7648;52.264;9.632;2023-04-15T04:24:45;6.80;99.90
15095;DHT22;7648;52.264;9.632;2023-04-15T04:28:47;6.70;99.90
15095;DHT22;7648;52.264;9.632;2023-04-15T04:32:49;6.70;99.90
15095;DHT22;7648;52.264;9.632;2023-04-15T04:36:51;6.70;99.90
15095;DHT22;7648;52.264;9.632;2023-04-15T04:40:54;6.70;99.90
15095;DHT22;7648;52.264;9.632;2023-04-15T04:44:56;6.70;99.90
15095;DHT22;7648;52.264;9.632;2023-04-15T04:48:58;6.70;99.90
15095;DHT22;7648;52.264;9.632;2023-04-15T04:53:00;6.70;99.90
15095;DHT22;7648;52.264;9.632;2023-04-15T04:57:03;6.70;99.90
15095;DHT22;7648;52.264;9.632;2023-04-15T05:01:07;6.60;99.90
15095;DHT22;7648;52.264;9.632;2023-04-15T05:05:09;6.70;99.90
15095;DHT22;7648;52.264;9.632;2023-04-15T05:09:12;6.60;99.90
15095;DHT22;7648;52.264;9.632;2023-04-15T05:13:15;6.70;99.90
15095;DHT22;7648;52.264;9.632;2023-04-15T05:17:17;6.60;99.90
15095;DHT22;7648;52.264;9.632;2023-04-15T05:21:19;6.70;99.90
15095;DHT22;7648;52.264;9.632;2023-04-15T05:25:22;6.70;99.90
15095;DHT22;7648;52.264;9.632;2023-04-15T05:29:25;6.60;99.90
15095;DHT22;7648;52.264;9.632;2023-04-15T05:33:27;6.60;99.90
15095;DHT22;7648;52.264;9.632;2023-04-15T05:37:28;6.60;99.90
15095;DHT22;7648;52.264;9.632;2023-04-15T05:41:30;6.60;99.90
15095;DHT22;7648;52.264;9.632;2023-04-15T05:45:33;6.70;99.90
15095;DHT22;7648;52.264;9.632;2023-04-15T05:49:36;6.60;99.90
15095;DHT22;7648;52.264;9.632;2023-04-15T05:53:37;6.60;99.90
15095;DHT22;7648;52.264;9.632;2023-04-15T05:57:41;6.70;99.90
15095;DHT22;7648;52.264;9.632;2023-04-15T06:01:44;6.70;99.90
15095;DHT22;7648;52.264;9.632;2023-04-15T06:05:46;6.70;99.90
15095;DHT22;7648;52.264;9.632;2023-04-15T06:09:48;6.70;99.90
15095;DHT22;7648;52.264;9.632;2023-04-15T06:13:50;6.70;99.90
15095;DHT22;7648;52.264;9.632;2023-04-15T06:17:53;6.70;99.90
15095;DHT22;7648;52.264;9.632;2023-04-15T06:21:55;6.70;99.90
15095;DHT22;7648;52.264;9.632;2023-04-15T06:25:56;6.70;99.90
15095;DHT22;7648;52.264;9.632;2023-04-15T06:29:58;6.80;99.90
15095;DHT22;7648;52.264;9.632;2023-04-15T06:34:02;6.80;99.90
15095;DHT22;7648;52.264;9.632;2023-04-15T06:38:04;6.80;99.90
15095;DHT22;7648;52.264;9.632;2023-04-15T06:42:05;6.80;99.90
15095;DHT22;7648;52.264;9.632;2023-04-15T06:46:07;6.80;99.90
15095;DHT22;7648;52.264;9.632;2023-04-15T06:50:11;6.80;99.90
15095;DHT22;7648;52.264;9.632;2023-04-15T06:54:13;6.80;99.90
15095;DHT22;7648;52.264;9.632;2023-04-15T06:58:14;6.90;99.90
15095;DHT22;7648;52.264;9.632;2023-04-15T07:02:16;6.90;99.90
15095;DHT22;7648;52.264;9.632;2023-04-15T07:06:19;6.90;99.90
15095;DHT22;7648;52.264;9.632;2023-04-15T07:10:21;6.90;99.90
15095;DHT22;7648;52.264;9.632;2023-04-15T07:14:23;6.90;99.90
15095;DHT22;7648;52.264;9.632;2023-04-15T07:18:25;6.90;99.90
15095;DHT22;7648;52.264;9.632;2023-04-15T07:22:28;7.00;99.90
15095;DHT22;7648;52.264;9.632;2023-04-15T07:26:30;7.00;99.90
15095;DHT22;7648;52.264;9.632;2023-04-15T07:30:32;7.00;99.90
15095;DHT22;7648;52.264;9.632;2023-04-15T07:34:34;7.00;99.90
15095;DHT22;7648;52.264;9.632;2023-04-15T07:38:37;7.00;99.90
15095;DHT22;7648;52.264;9.632;2023-04-15T07:42:39;7.00;99.90
15095;DHT22;7648;52.264;9.632;2023-04-15T07:46:41;7.10;99.90
15095;DHT22;7648;52.264;9.632;2023-04-15T07:50:43;7.10;99.90
15095;DHT22;7648;52.264;9.632;2023-04-15T07:54:46;7.10;99.90
15095;DHT22;7648;52.264;9.632;2023-04-15T07:58:48;7.10;99.90
15095;DHT22;7648;52.264;9.632;2023-04-15T08:02:50;7.10;99.90
15095;DHT22;7648;52.264;9.632;2023-04-15T08:06:53;7.20;99.90
15095;DHT22;7648;52.264;9.632;2023-04-15T08:10:57;7.20;99.90
15095;DHT22;7648;52.264;9.632;2023-04-15T08:14:59;7.20;99.90
15095;DHT22;7648;52.264;9.632;2023-04-15T08:19:01;7.20;99.90
15095;DHT22;7648;52.264;9.632;2023-04-15T08:23:03;7.20;99.90
15095;DHT22;7648;52.264;9.632;2023-04-15T08:27:06;7.20;99.90
15095;DHT22;7648;52.264;9.632;2023-04-15T08:31:08;7.20;99.90
15095;DHT22;7648;52.264;9.632;2023-04-15T08:35:11;7.30;99.90
15095;DHT22;7648;52.264;9.632;2023-04-15T08:39:13;7.30;99.90
15095;DHT22;7648;52.264;9.632;2023-04-15T08:43:20;7.30;99.90
15095;DHT22;7648;52.264;9.632;2023-04-15T08:47:25;7.40;99.90
15095;DHT22;7648;52.264;9.632;2023-04-15T08:51:31;7.40;99.90
15095;DHT22;7648;52.264;9.632;2023-04-15T08:55:35;7.40;99.90
15095;DHT22;7648;52.264;9.632;2023-04-15T08:59:40;7.40;99.90
15095;DHT22;7648;52.264;9.632;2023-04-15T09:03:43;7.40;99.90
15095;DHT22;7648;52.264;9.632;2023-04-15T09:07:45;7.50;99.90
15095;DHT22;7648;52.264;9.632;2023-04-15T09:11:47;7.50;99.90
15095;DHT22;7648;52.264;9.632;2023-04-15T09:15:51;7.50;99.90
15095;DHT22;7648;52.264;9.632;2023-04-15T09:20:07;7.50;99.90
15095;DHT22;7648;52.264;9.632;2023-04-15T09:24:09;7.50;99.90
15095;DHT22;7648;52.264;9.632;2023-04-15T09:28:11;7.60;99.90
15095;DHT22;7648;52.264;9.632;2023-04-15T09:32:15;7.60;99.90
15095;DHT22;7648;52.264;9.632;2023-04-15T09:36:17;7.60;99.90
15095;DHT22;7648;52.264;9.632;2023-04-15T09:40:30;7.60;99.90
15095;DHT22;7648;52.264;9.632;2023-04-15T09:44:33;7.60;99.90
15095;DHT22;7648;52.264;9.632;2023-04-15T09:48:36;7.70;99.90
15095;DHT22;7648;52.264;9.632;2023-04-15T09:52:41;7.70;99.90
15095;DHT22;7648;52.264;9.632;2023-04-15T09:56:44;7.70;99.90
15095;DHT22;7648;52.264;9.632;2023-04-15T10:00:47;7.70;99.90
15095;DHT22;7648;52.264;9.632;2023-04-15T10:04:51;7.80;99.90
15095;DHT22;7648;52.264;9.632;2023-04-15T10:08:54;7.80;99.90
15095;DHT22;7648;52.264;9.632;2023-04-15T10:12:56;7.80;99.90
15095;DHT22;7648;52.264;9.632;2023-04-15T10:17:00;7.90;99.90
15095;DHT22;7648;52.264;9.632;2023-04-15T10:21:04;7.90;99.90
15095;DHT22;7648;52.264;9.632;2023-04-15T10:25:08;7.90;99.90
15095;DHT22;7648;52.264;9.632;2023-04-15T10:29:11;7.90;99.90
15095;DHT22;7648;52.264;9.632;2023-04-15T10:33:13;8.00;99.90
15095;DHT22;7648;52.264;9.632;2023-04-15T10:37:21;8.00;99.90
15095;DHT22;7648;52.264;9.632;2023-04-15T10:41:24;8.00;99.90
15095;DHT22;7648;52.264;9.632;2023-04-15T10:45:31;8.00;99.90
15095;DHT22;7648;52.264;9.632;2023-04-15T10:49:33;8.10;99.90
15095;DHT22;7648;52.264;9.632;2023-04-15T10:53:36;8.10;99.90
15095;DHT22;7648;52.264;9.632;2023-04-15T10:57:40;8.20;99.90
15095;DHT22;7648;52.264;9.632;2023-04-15T11:01:55;8.20;99.90
15095;DHT22;7648;52.264;9.632;2023-04-15T11:05:59;8.20;99.90
15095;DHT22;7648;52.264;9.632;2023-04-15T11:10:03;8.20;99.90
15095;DHT22;7648;52.264;9.632;2023-04-15T11:14:05;8.30;99.90
15095;DHT22;7648;52.264;9.632;2023-04-15T11:18:16;8.30;99.90
15095;DHT22;7648;52.264;9.632;2023-04-15T11:22:18;8.30;99.90
15095;DHT22;7648;52.264;9.632;2023-04-15T11:26:25;8.40;99.90
15095;DHT22;7648;52.264;9.632;2023-04-15T11:30:29;8.40;99.90
15095;DHT22;7648;52.264;9.632;2023-04-15T11:34:32;8.40;99.90
15095;DHT22;7648;52.264;9.632;2023-04-15T11:38:35;8.40;99.90
15095;DHT22;7648;52.264;9.632;2023-04-15T11:42:38;8.50;99.90
15095;DHT22;7648;52.264;9.632;2023-04-15T11:46:40;8.50;99.90
15095;DHT22;7648;52.264;9.632;2023-04-15T11:50:43;8.50;99.90
15095;DHT22;7648;52.264;9.632;2023-04-15T11:54:45;8.60;99.90
15095;DHT22;7648;52.264;9.632;2023-04-15T11:58:51;8.60;99.90
15095;DHT22;7648;52.264;9.632;2023-04-15T12:03:11;8.60;99.90
15095;DHT22;7648;52.264;9.632;2023-04-15T12:07:12;8.70;99.90
15095;DHT22;7648;52.264;9.632;2023-04-15T12:11:14;8.70;99.90
15095;DHT22;7648;52.264;9.632;2023-04-15T12:15:20;8.80;99.90
15095;DHT22;7648;52.264;9.632;2023-04-15T12:19:23;8.80;99.90
15095;DHT22;7648;52.264;9.632;2023-04-15T12:23:25;8.90;99.90
15095;DHT22;7648;52.264;9.632;2023-04-15T12:27:28;8.90;99.90
15095;DHT22;7648;52.264;9.632;2023-04-15T12:31:33;9.00;99.90
15095;DHT22;7648;52.264;9.632;2023-04-15T12:35:36;9.00;99.90
15095;DHT22;7648;52.264;9.632;2023-04-15T12:39:39;9.10;99.90
15095;DHT22;7648;52.264;9.632;2023-04-15T12:43:43;9.10;99.90
15095;DHT22;7648;52.264;9.632;2023-04-15T12:47:46;9.10;99.90
15095;DHT22;7648;52.264;9.632;2023-04-15T12:51:49;9.20;99.90
15095;DHT22;7648;52.264;9.632;2023-04-15T12:55:51;9.20;99.90
15095;DHT22;7648;52.264;9.632;2023-04-15T12:59:53;9.30;99.90
15095;DHT22;7648;52.264;9.632;2023-04-15T13:03:56;9.30;99.90
15095;DHT22;7648;52.264;9.632;2023-04-15T13:07:58;9.30;99.90
15095;DHT22;7648;52.264;9.632;2023-04-15T13:12:00;9.30;99.90
15095;DHT22;7648;52.264;9.632;2023-04-15T13:16:04;9.40;99.90
15095;DHT22;7648;52.264;9.632;2023-04-15T13:20:08;9.40;99.90
15095;DHT22;7648;52.264;9.632;2023-04-15T13:24:10;9.40;99.90
15095;DHT22;7648;52.264;9.632;2023-04-15T13:28:12;9.50;99.90
15095;DHT22;7648;52.264;9.632;2023-04-15T13:32:14;9.50;99.90
15095;DHT22;7648;52.264;9.632;2023-04-15T13:36:17;9.50;99.90
15095;DHT22;7648;52.264;9.632;2023-04-15T13:40:19;9.60;99.90
15095;DHT22;7648;52.264;9.632;2023-04-15T13:44:21;9.60;99.90
15095;DHT22;7648;52.264;9.632;2023-04-15T13:48:23;9.70;99.90
15095;DHT22;7648;52.264;9.632;2023-04-15T13:52:26;9.70;99.90
15095;DHT22;7648;52.264;9.632;2023-04-15T13:56:28;9.80;99.90
15095;DHT22;7648;52.264;9.632;2023-04-15T14:00:30;9.90;99.90
15095;DHT22;7648;52.264;9.632;2023-04-15T14:04:32;10.00;99.90
15095;DHT22;7648;52.264;9.632;2023-04-15T14:08:35;10.00;99.90
15095;DHT22;7648;52.264;9.632;2023-04-15T14:12:37;10.00;99.90
15095;DHT22;7648;52.264;9.632;2023-04-15T14:16:39;10.10;99.90
15095;DHT22;7648;52.264;9.632;2023-04-15T14:20:41;10.30;99.90
15095;DHT22;7648;52.264;9.632;2023-04-15T14:24:44;10.40;99.90
15095;DHT22;7648;52.264;9.632;2023-04-15T14:28:48;10.50;99.90
15095;DHT22;7648;52.264;9.632;2023-04-15T14:32:50;10.60;99.90
15095;DHT22;7648;52.264;9.632;2023-04-15T14:36:52;10.70;99.90
15095;DHT22;7648;52.264;9.632;2023-04-15T14:40:55;10.80;99.90
15095;DHT22;7648;52.264;9.632;2023-04-15T14:44:57;10.90;99.90
15095;DHT22;7648;52.264;9.632;2023-04-15T14:48:59;10.90;99.90
15095;DHT22;7648;52.264;9.632;2023-04-15T14:53:01;10.80;99.90
15095;DHT22;7648;52.264;9.632;2023-04-15T14:57:04;10.80;99.90
15095;DHT22;7648;52.264;9.632;2023-04-15T15:01:07;10.70;99.90
15095;DHT22;7648;52.264;9.632;2023-04-15T15:05:09;10.70;99.90
15095;DHT22;7648;52.264;9.632;2023-04-15T15:09:12;10.80;99.90
15095;DHT22;7648;52.264;9.632;2023-04-15T15:13:16;10.90;99.90
15095;DHT22;7648;52.264;9.632;2023-04-15T15:17:18;11.00;99.90
15095;DHT22;7648;52.264;9.632;2023-04-15T15:21:20;11.10;99.90
15095;DHT22;7648;52.264;9.632;2023-04-15T15:25:22;11.20;99.90
15095;DHT22;7648;52.264;9.632;2023-04-15T15:29:25;11.20;99.90
15095;DHT22;7648;52.264;9.632;2023-04-15T15:33:27;11.20;99.90
15095;DHT22;7648;52.264;9.632;2023-04-15T15:37:29;11.10;99.90
15095;DHT22;7648;52.264;9.632;2023-04-15T15:41:31;11.10;99.90
15095;DHT22;7648;52.264;9.632;2023-04-15T15:45:35;11.20;99.90
15095;DHT22;7648;52.264;9.632;2023-04-15T15:49:37;11.30;99.90
15095;DHT22;7648;52.264;9.632;2023-04-15T15:53:40;11.30;99.90
15095;DHT22;7648;52.264;9.632;2023-04-15T15:57:44;11.20;99.90
15095;DHT22;7648;52.264;9.632;2023-04-15T16:01:47;11.10;99.90
15095;DHT22;7648;52.264;9.632;2023-04-15T16:05:49;11.20;99.90
15095;DHT22;7648;52.264;9.632;2023-04-15T16:09:51;11.20;99.90
15095;DHT22;7648;52.264;9.632;2023-04-15T16:13:53;11.30;99.90
15095;DHT22;7648;52.264;9.632;2023-04-15T16:17:56;11.30;99.90
15095;DHT22;7648;52.264;9.632;2023-04-15T16:21:59;11.40;99.90
15095;DHT22;7648;52.264;9.632;2023-04-15T16:26:01;11.50;99.90
15095;DHT22;7648;52.264;9.632;2023-04-15T16:30:03;11.50;99.90
15095;DHT22;7648;52.264;9.632;2023-04-15T16:34:07;11.60;99.90
15095;DHT22;7648;52.264;9.632;2023-04-15T16:38:09;11.60;99.90
15095;DHT22;7648;52.264;9.632;2023-04-15T16:42:11;11.60;99.90
15095;DHT22;7648;52.264;9.632;2023-04-15T16:46:12;11.60;99.90
15095;DHT22;7648;52.264;9.632;2023-04-15T16:50:17;11.50;99.90
15095;DHT22;7648;52.264;9.632;2023-04-15T16:54:19;11.40;99.90
15095;DHT22;7648;52.264;9.632;2023-04-15T16:58:21;11.40;99.90
15095;DHT22;7648;52.264;9.632;2023-04-15T17:02:23;11.40;99.90
15095;DHT22;7648;52.264;9.632;2023-04-15T17:06:27;11.40;99.90
15095;DHT22;7648;52.264;9.632;2023-04-15T17:10:29;11.30;99.90
15095;DHT22;7648;52.264;9.632;2023-04-15T17:14:32;11.20;99.90
15095;DHT22;7648;52.264;9.632;2023-04-15T17:18:34;11.10;99.90
15095;DHT22;7648;52.264;9.632;2023-04-15T17:22:37;11.00;99.90
15095;DHT22;7648;52.264;9.632;2023-04-15T17:26:39;11.00;99.90
15095;DHT22;7648;52.264;9.632;2023-04-15T17:30:41;10.90;99.90
15095;DHT22;7648;52.264;9.632;2023-04-15T17:34:43;10.90;99.90
15095;DHT22;7648;52.264;9.632;2023-04-15T17:38:47;10.90;99.90
15095;DHT22;7648;52.264;9.632;2023-04-15T17:42:48;10.80;99.90
15095;DHT22;7648;52.264;9.632;2023-04-15T17:46:50;10.90;99.90
15095;DHT22;7648;52.264;9.632;2023-04-15T17:50:53;10.90;99.90
15095;DHT22;7648;52.264;9.632;2023-04-15T17:54:57;10.80;99.90
15095;DHT22;7648;52.264;9.632;2023-04-15T17:58:59;10.80;99.90
15095;DHT22;7648;52.264;9.632;2023-04-15T18:03:01;10.90;99.90
15095;DHT22;7648;52.264;9.632;2023-04-15T18:07:03;10.80;99.90
15095;DHT22;7648;52.264;9.632;2023-04-15T18:11:07;10.80;99.90
15095;DHT22;7648;52.264;9.632;2023-04-15T18:15:11;10.80;99.90
15095;DHT22;7648;52.264;9.632;2023-04-15T18:19:14;10.80;99.90
15095;DHT22;7648;52.264;9.632;2023-04-15T18:23:16;10.80;99.90
15095;DHT22;7648;52.264;9.632;2023-04-15T18:27:19;10.80;99.90
15095;DHT22;7648;52.264;9.632;2023-04-15T18:31:21;10.80;99.90
15095;DHT22;7648;52.264;9.632;2023-04-15T18:35:23;10.80;99.90
15095;DHT22;7648;52.264;9.632;2023-04-15T18:39:25;10.80;99.90
15095;DHT22;7648;52.264;9.632;2023-04-15T18:43:28;10.80;99.90
15095;DHT22;7648;52.264;9.632;2023-04-15T18:47:30;10.80;99.90
15095;DHT22;7648;52.264;9.632;2023-04-15T18:51:32;10.80;99.90
15095;DHT22;7648;52.264;9.632;2023-04-15T18:55:34;10.80;99.90
15095;DHT22;7648;52.264;9.632;2023-04-15T18:59:37;10.80;99.90
15095;DHT22;7648;52.264;9.632;2023-04-15T19:03:39;10.70;99.90
15095;DHT22;7648;52.264;9.632;2023-04-15T19:07:41;10.70;99.90
15095;DHT22;7648;52.264;9.632;2023-04-15T19:11:43;10.70;99.90
15095;DHT22;7648;52.264;9.632;2023-04-15T19:15:46;10.70;99.90
15095;DHT22;7648;52.264;9.632;2023-04-15T19:19:48;10.70;99.90
15095;DHT22;7648;52.264;9.632;2023-04-15T19:23:50;10.70;99.90
15095;DHT22;7648;52.264;9.632;2023-04-15T19:27:52;10.60;99.90
15095;DHT22;7648;52.264;9.632;2023-04-15T19:31:55;10.60;99.90
15095;DHT22;7648;52.264;9.632;2023-04-15T19:35:58;10.60;99.90
15095;DHT22;7648;52.264;9.632;2023-04-15T19:40:01;10.60;99.90
15095;DHT22;7648;52.264;9.632;2023-04-15T19:44:03;10.60;99.90
15095;DHT22;7648;52.264;9.632;2023-04-15T19:48:06;10.60;99.90
15095;DHT22;7648;52.264;9.632;2023-04-15T19:52:08;10.50;99.90
15095;DHT22;7648;52.264;9.632;2023-04-15T19:56:10;10.60;99.90
15095;DHT22;7648;52.264;9.632;2023-04-15T20:00:12;10.50;99.90
15095;DHT22;7648;52.264;9.632;2023-04-15T20:04:15;10.50;99.90
15095;DHT22;7648;52.264;9.632;2023-04-15T20:08:17;10.50;99.90
15095;DHT22;7648;52.264;9.632;2023-04-15T20:12:19;10.50;99.90
15095;DHT22;7648;52.264;9.632;2023-04-15T20:16:21;10.40;99.90
15095;DHT22;7648;52.264;9.632;2023-04-15T20:20:24;10.40;99.90
15095;DHT22;7648;52.264;9.632;2023-04-15T20:24:26;10.40;99.90
15095;DHT22;7648;52.264;9.632;2023-04-15T20:28:28;10.40;99.90
15095;DHT22;7648;52.264;9.632;2023-04-15T20:32:30;10.40;99.90
15095;DHT22;7648;52.264;9.632;2023-04-15T20:36:36;10.40;99.90
15095;DHT22;7648;52.264;9.632;2023-04-15T20:40:37;10.30;99.90
15095;DHT22;7648;52.264;9.632;2023-04-15T20:44:39;10.30;99.90
15095;DHT22;7648;52.264;9.632;2023-04-15T20:48:41;10.30;99.90
15095;DHT22;7648;52.264;9.632;2023-04-15T20:52:44;10.30;99.90
15095;DHT22;7648;52.264;9.632;2023-04-15T20:56:46;10.20;99.90
15095;DHT22;7648;52.264;9.632;2023-04-15T21:00:48;10.20;99.90
15095;DHT22;7648;52.264;9.632;2023-04-15T21:04:50;10.20;99.90
15095;DHT22;7648;52.264;9.632;2023-04-15T21:08:53;10.20;99.90
15095;DHT22;7648;52.264;9.632;2023-04-15T21:12:55;10.20;99.90
15095;DHT22;7648;52.264;9.632;2023-04-15T21:16:57;10.20;99.90
15095;DHT22;7648;52.264;9.632;2023-04-15T21:20:59;10.20;99.90
15095;DHT22;7648;52.264;9.632;2023-04-15T21:25:04;10.20;99.90
15095;DHT22;7648;52.264;9.632;2023-04-15T21:29:05;10.20;99.90
15095;DHT22;7648;52.264;9.632;2023-04-15T21:33:07;10.20;99.90
15095;DHT22;7648;52.264;9.632;2023-04-15T21:37:09;10.10;99.90
15095;DHT22;7648;52.264;9.632;2023-04-15T21:41:12;10.10;99.90
15095;DHT22;7648;52.264;9.632;2023-04-15T21:45:14;10.00;99.90
15095;DHT22;7648;52.264;9.632;2023-04-15T21:49:17;10.00;99.90
15095;DHT22;7648;52.264;9.632;2023-04-15T21:53:19;10.00;99.90
15095;DHT22;7648;52.264;9.632;2023-04-15T21:57:23;9.90;99.90
15095;DHT22;7648;52.264;9.632;2023-04-15T22:01:25;9.90;99.90
15095;DHT22;7648;52.264;9.632;2023-04-15T22:05:27;9.80;99.90
15095;DHT22;7648;52.264;9.632;2023-04-15T22:09:29;9.70;99.90
15095;DHT22;7648;52.264;9.632;2023-04-15T22:13:32;9.70;99.90
15095;DHT22;7648;52.264;9.632;2023-04-15T22:17:34;9.70;99.90
15095;DHT22;7648;52.264;9.632;2023-04-15T22:21:36;9.70;99.90
15095;DHT22;7648;52.264;9.632;2023-04-15T22:25:38;9.60;99.90
15095;DHT22;7648;52.264;9.632;2023-04-15T22:29:41;9.60;99.90
15095;DHT22;7648;52.264;9.632;2023-04-15T22:33:43;9.50;99.90
15095;DHT22;7648;52.264;9.632;2023-04-15T22:37:45;9.60;99.90
15095;DHT22;7648;52.264;9.632;2023-04-15T22:41:48;9.50;99.90
15095;DHT22;7648;52.264;9.632;2023-04-15T22:45:51;9.50;99.90
15095;DHT22;7648;52.264;9.632;2023-04-15T22:49:54;9.50;99.90
15095;DHT22;7648;52.264;9.632;2023-04-15T22:53:56;9.40;99.90
15095;DHT22;7648;52.264;9.632;2023-04-15T22:57:58;9.50;99.90
15095;DHT22;7648;52.264;9.632;2023-04-15T23:02:01;9.40;99.90
15095;DHT22;7648;52.264;9.632;2023-04-15T23:06:03;9.40;99.90
15095;DHT22;7648;52.264;9.632;2023-04-15T23:10:06;9.40;99.90
15095;DHT22;7648;52.264;9.632;2023-04-15T23:14:08;9.40;99.90
15095;DHT22;7648;52.264;9.632;2023-04-15T23:18:11;9.30;99.90
15095;DHT22;7648;52.264;9.632;2023-04-15T23:22:13;9.30;99.90
15095;DHT22;7648;52.264;9.632;2023-04-15T23:26:15;9.30;99.90
15095;DHT22;7648;52.264;9.632;2023-04-15T23:30:17;9.30;99.90
15095;DHT22;7648;52.264;9.632;2023-04-15T23:34:20;9.30;99.90
15095;DHT22;7648;52.264;9.632;2023-04-15T23:38:22;9.30;99.90
15095;DHT22;7648;52.264;9.632;2023-04-15T23:42:24;9.30;99.90
15095;DHT22;7648;52.264;9.632;2023-04-15T23:46:25;9.30;99.90
15095;DHT22;7648;52.264;9.632;2023-04-15T23:50:29;9.20;99.90
15095;DHT22;7648;52.264;9.632;2023-04-15T23:54:31;9.20;99.90
15095;DHT22;7648;52.264;9.632;2023-04-15T23:58:33;9.20;99.90
